Aérodrome :
LOGIN :

S'inscrire | Disclaimer

   EN    FR    IT 

 










Légende :    VFR   VFR Marginal   IFR   IFR Intensif   IFR Très Intensif
Visi : 
Plafond : 
>= 8 km
>= 3000ft
5 à 8 km
1000 à 3000 ft
1500m à 5 km
500 à 1000 ft
800 à 1500m
200 à 500 ft
< 800m
< 200 ft
Symboles :   Orages  Brouillard  Fortes neiges  Fortes précipitations  Vent > 20 kt
SIGMETs :   Divers  Orages  Givrage  Turbulence  Onde Orograph.  Cendres Volcan.






- Altitude de l'aérodrome : 170 ft
- Code IATA : KRP


EKKA - Karup

DERNIER METAR :
  • 281450Z 18008KT 9999 FEW023CB SCT070 09/06 Q1000

METARs EXPIRÉS :
  • 281420Z 19010KT 9999 FEW023CB SCT026 BKN040 10/06 Q1000 TEMPO 21015G28KT 6000 -SHRA SCT020CB
  • 281320Z 19008KT 9999 FEW020 FEW025CB SCT040 10/07 Q1000 TEMPO 21015G28KT 6000 -SHRA SCT020CB
  • 281250Z 20009KT 9999 FEW020 FEW025CB SCT060 10/06 Q1000 TEMPO 21015G28KT 6000 -SHRA SCT020CB
  • 281220Z 20008KT 9999 FEW020 FEW025CB SCT200 11/06 Q0999 TEMPO 21015G28KT 6000 -SHRA SCT020CB

TAF TAF EKKA
Valide du 28 à 15h jusqu'au 29 à 15h UTC


281406Z 2815/2915 19008KT 9999 SCT020 SCT050
TEMPO 2815/2818 20015G28KT 4000 SHRA SCT012 BKN020CB
PROB40
TEMPO 2815/2818 TSRAGS
TEMPO 2818/2909 4000 SHRA SCT010 BKN020CB
BECMG 2905/2908 25006KT



MET'MAP, la Météo Aéronautique d'un coup d'oeil ! - Copyright ORBIFLY Décembre 2007 - Disclaimer

ORBIFLY MET'MAP TEAM :

Programmation & Développement : Alexandra Zaïnal
Sur une idée originale de : Baudouin d'Aumeries
Assistance à la programmation : Marc-Olivier Méhu
Soutien technique & logistique : Manuel Goepfert

Contact : metmap@orbifly.com




SOURCES & CREDITS :

   NOAA